sensor_id;sensor_type;location;lat;lon;timestamp;P1;P2;P0
69350;PMS7003;57106;51.446;-2.606;2023-07-31T00:01:05;0;0;
69350;PMS7003;57106;51.446;-2.606;2023-07-31T00:03:30;0;0;
69350;PMS7003;57106;51.446;-2.606;2023-07-31T00:05:55;0;0;
69350;PMS7003;57106;51.446;-2.606;2023-07-31T00:08:21;0;0;
69350;PMS7003;57106;51.446;-2.606;2023-07-31T00:10:46;0;0;
69350;PMS7003;57106;51.446;-2.606;2023-07-31T00:13:12;0;0;
69350;PMS7003;57106;51.446;-2.606;2023-07-31T00:15:37;0;0;
69350;PMS7003;57106;51.446;-2.606;2023-07-31T00:18:02;0;0;
69350;PMS7003;57106;51.446;-2.606;2023-07-31T00:20:28;0;0;
69350;PMS7003;57106;51.446;-2.606;2023-07-31T00:22:53;0;0;
69350;PMS7003;57106;51.446;-2.606;2023-07-31T00:25:18;0;0;
69350;PMS7003;57106;51.446;-2.606;2023-07-31T00:27:44;0;0;
69350;PMS7003;57106;51.446;-2.606;2023-07-31T00:30:10;0;0;
69350;PMS7003;57106;51.446;-2.606;2023-07-31T00:59:14;0;0;
69350;PMS7003;57106;51.446;-2.606;2023-07-31T01:01:39;1;0;
69350;PMS7003;57106;51.446;-2.606;2023-07-31T01:04:04;0;0;
69350;PMS7003;57106;51.446;-2.606;2023-07-31T01:06:32;0;0;
69350;PMS7003;57106;51.446;-2.606;2023-07-31T01:08:57;0;0;
69350;PMS7003;57106;51.446;-2.606;2023-07-31T01:25:54;0;0;
69350;PMS7003;57106;51.446;-2.606;2023-07-31T01:28:19;0;0;
69350;PMS7003;57106;51.446;-2.606;2023-07-31T01:30:44;0;0;
69350;PMS7003;57106;51.446;-2.606;2023-07-31T01:33:08;0;0;
69350;PMS7003;57106;51.446;-2.606;2023-07-31T01:35:34;0;0;
69350;PMS7003;57106;51.446;-2.606;2023-07-31T01:42:50;0;0;
69350;PMS7003;57106;51.446;-2.606;2023-07-31T01:45:15;0;0;
69350;PMS7003;57106;51.446;-2.606;2023-07-31T01:47:41;1;0;
69350;PMS7003;57106;51.446;-2.606;2023-07-31T01:50:06;0;0;
69350;PMS7003;57106;51.446;-2.606;2023-07-31T01:52:31;0;0;
69350;PMS7003;57106;51.446;-2.606;2023-07-31T01:54:57;0;0;
69350;PMS7003;57106;51.446;-2.606;2023-07-31T01:57:22;0;0;
69350;PMS7003;57106;51.446;-2.606;2023-07-31T01:59:47;0;0;
69350;PMS7003;57106;51.446;-2.606;2023-07-31T02:02:13;1;0;
69350;PMS7003;57106;51.446;-2.606;2023-07-31T02:04:38;0;0;
69350;PMS7003;57106;51.446;-2.606;2023-07-31T02:07:04;0;0;
69350;PMS7003;57106;51.446;-2.606;2023-07-31T02:09:29;1;0;
69350;PMS7003;57106;51.446;-2.606;2023-07-31T02:11:54;0;0;
69350;PMS7003;57106;51.446;-2.606;2023-07-31T02:14:20;0;0;
69350;PMS7003;57106;51.446;-2.606;2023-07-31T02:16:45;0;0;
69350;PMS7003;57106;51.446;-2.606;2023-07-31T02:19:10;0;0;
69350;PMS7003;57106;51.446;-2.606;2023-07-31T02:21:36;0;0;
69350;PMS7003;57106;51.446;-2.606;2023-07-31T02:24:01;0;0;
69350;PMS7003;57106;51.446;-2.606;2023-07-31T02:26:26;0;0;
69350;PMS7003;57106;51.446;-2.606;2023-07-31T02:28:52;0;0;
69350;PMS7003;57106;51.446;-2.606;2023-07-31T02:31:17;0;0;
69350;PMS7003;57106;51.446;-2.606;2023-07-31T02:33:42;1;1;
69350;PMS7003;57106;51.446;-2.606;2023-07-31T02:36:08;2;0;
69350;PMS7003;57106;51.446;-2.606;2023-07-31T02:38:33;1;0;
69350;PMS7003;57106;51.446;-2.606;2023-07-31T03:19:46;0;0;
69350;PMS7003;57106;51.446;-2.606;2023-07-31T03:22:10;4;3;
69350;PMS7003;57106;51.446;-2.606;2023-07-31T03:24:36;5;3;
69350;PMS7003;57106;51.446;-2.606;2023-07-31T03:27:01;2;1;
69350;PMS7003;57106;51.446;-2.606;2023-07-31T03:29:26;2;1;
69350;PMS7003;57106;51.446;-2.606;2023-07-31T03:31:52;0;0;
69350;PMS7003;57106;51.446;-2.606;2023-07-31T03:34:17;5;4;
69350;PMS7003;57106;51.446;-2.606;2023-07-31T03:36:43;2;1;
69350;PMS7003;57106;51.446;-2.606;2023-07-31T03:39:08;2;2;
69350;PMS7003;57106;51.446;-2.606;2023-07-31T03:41:33;5;4;
69350;PMS7003;57106;51.446;-2.606;2023-07-31T03:43:59;4;3;
69350;PMS7003;57106;51.446;-2.606;2023-07-31T03:46:24;4;3;
69350;PMS7003;57106;51.446;-2.606;2023-07-31T03:48:52;1;1;
69350;PMS7003;57106;51.446;-2.606;2023-07-31T03:51:15;3;2;
69350;PMS7003;57106;51.446;-2.606;2023-07-31T03:53:40;3;1;
69350;PMS7003;57106;51.446;-2.606;2023-07-31T03:56:06;2;2;
69350;PMS7003;57106;51.446;-2.606;2023-07-31T03:58:31;3;2;
69350;PMS7003;57106;51.446;-2.606;2023-07-31T04:00:56;5;1;
69350;PMS7003;57106;51.446;-2.606;2023-07-31T04:03:22;2;2;
69350;PMS7003;57106;51.446;-2.606;2023-07-31T04:05:47;5;3;
69350;PMS7003;57106;51.446;-2.606;2023-07-31T04:08:13;1;1;
69350;PMS7003;57106;51.446;-2.606;2023-07-31T04:10:38;2;1;
69350;PMS7003;57106;51.446;-2.606;2023-07-31T04:13:03;1;0;
69350;PMS7003;57106;51.446;-2.606;2023-07-31T04:15:29;5;3;
69350;PMS7003;57106;51.446;-2.606;2023-07-31T04:17:54;3;3;
69350;PMS7003;57106;51.446;-2.606;2023-07-31T04:20:20;3;3;
69350;PMS7003;57106;51.446;-2.606;2023-07-31T04:22:45;5;5;
69350;PMS7003;57106;51.446;-2.606;2023-07-31T04:25:10;3;3;
69350;PMS7003;57106;51.446;-2.606;2023-07-31T04:27:36;3;3;
69350;PMS7003;57106;51.446;-2.606;2023-07-31T04:30:01;4;3;
69350;PMS7003;57106;51.446;-2.606;2023-07-31T04:32:26;4;4;
69350;PMS7003;57106;51.446;-2.606;2023-07-31T04:34:52;3;3;
69350;PMS7003;57106;51.446;-2.606;2023-07-31T04:37:17;5;4;
69350;PMS7003;57106;51.446;-2.606;2023-07-31T04:39:42;4;4;
69350;PMS7003;57106;51.446;-2.606;2023-07-31T04:42:08;5;4;
69350;PMS7003;57106;51.446;-2.606;2023-07-31T04:44:33;5;5;
69350;PMS7003;57106;51.446;-2.606;2023-07-31T04:46:59;3;3;
69350;PMS7003;57106;51.446;-2.606;2023-07-31T04:49:24;7;7;
69350;PMS7003;57106;51.446;-2.606;2023-07-31T04:51:50;5;5;
69350;PMS7003;57106;51.446;-2.606;2023-07-31T04:54:15;5;5;
69350;PMS7003;57106;51.446;-2.606;2023-07-31T04:56:40;3;2;
69350;PMS7003;57106;51.446;-2.606;2023-07-31T04:59:05;3;3;
69350;PMS7003;57106;51.446;-2.606;2023-07-31T05:01:31;2;2;
69350;PMS7003;57106;51.446;-2.606;2023-07-31T05:06:22;5;4;
69350;PMS7003;57106;51.446;-2.606;2023-07-31T05:08:47;4;4;
69350;PMS7003;57106;51.446;-2.606;2023-07-31T05:11:12;7;7;
69350;PMS7003;57106;51.446;-2.606;2023-07-31T05:13:38;4;4;
69350;PMS7003;57106;51.446;-2.606;2023-07-31T05:16:03;6;6;
69350;PMS7003;57106;51.446;-2.606;2023-07-31T05:18:29;4;3;
69350;PMS7003;57106;51.446;-2.606;2023-07-31T05:20:54;4;4;
69350;PMS7003;57106;51.446;-2.606;2023-07-31T05:23:19;3;3;
69350;PMS7003;57106;51.446;-2.606;2023-07-31T05:25:45;5;4;
69350;PMS7003;57106;51.446;-2.606;2023-07-31T05:28:11;5;5;
69350;PMS7003;57106;51.446;-2.606;2023-07-31T05:30:35;5;4;
69350;PMS7003;57106;51.446;-2.606;2023-07-31T05:33:04;3;3;
69350;PMS7003;57106;51.446;-2.606;2023-07-31T05:35:26;4;4;
69350;PMS7003;57106;51.446;-2.606;2023-07-31T05:37:52;5;3;
69350;PMS7003;57106;51.446;-2.606;2023-07-31T05:40:17;3;3;
69350;PMS7003;57106;51.446;-2.606;2023-07-31T05:42:42;6;6;
69350;PMS7003;57106;51.446;-2.606;2023-07-31T05:45:08;4;4;
69350;PMS7003;57106;51.446;-2.606;2023-07-31T05:47:33;4;4;
69350;PMS7003;57106;51.446;-2.606;2023-07-31T05:49:58;4;3;
69350;PMS7003;57106;51.446;-2.606;2023-07-31T05:52:24;5;4;
69350;PMS7003;57106;51.446;-2.606;2023-07-31T05:54:49;4;4;
69350;PMS7003;57106;51.446;-2.606;2023-07-31T05:57:20;6;4;
69350;PMS7003;57106;51.446;-2.606;2023-07-31T05:59:40;5;4;
69350;PMS7003;57106;51.446;-2.606;2023-07-31T06:06:56;5;1;
69350;PMS7003;57106;51.446;-2.606;2023-07-31T06:09:21;4;2;
69350;PMS7003;57106;51.446;-2.606;2023-07-31T06:11:47;3;3;
69350;PMS7003;57106;51.446;-2.606;2023-07-31T06:14:12;3;3;
69350;PMS7003;57106;51.446;-2.606;2023-07-31T06:16:37;4;4;
69350;PMS7003;57106;51.446;-2.606;2023-07-31T06:19:03;5;3;
69350;PMS7003;57106;51.446;-2.606;2023-07-31T06:21:28;3;2;
69350;PMS7003;57106;51.446;-2.606;2023-07-31T06:23:53;4;3;
69350;PMS7003;57106;51.446;-2.606;2023-07-31T06:26:19;3;3;
69350;PMS7003;57106;51.446;-2.606;2023-07-31T06:28:44;3;2;
69350;PMS7003;57106;51.446;-2.606;2023-07-31T06:31:09;4;3;
69350;PMS7003;57106;51.446;-2.606;2023-07-31T06:33:35;2;2;
69350;PMS7003;57106;51.446;-2.606;2023-07-31T06:36:00;2;2;
69350;PMS7003;57106;51.446;-2.606;2023-07-31T06:38:26;3;3;
69350;PMS7003;57106;51.446;-2.606;2023-07-31T06:40:51;2;2;
69350;PMS7003;57106;51.446;-2.606;2023-07-31T06:43:16;2;2;
69350;PMS7003;57106;51.446;-2.606;2023-07-31T06:45:42;2;2;
69350;PMS7003;57106;51.446;-2.606;2023-07-31T06:48:07;2;2;
69350;PMS7003;57106;51.446;-2.606;2023-07-31T06:52:58;1;1;
69350;PMS7003;57106;51.446;-2.606;2023-07-31T06:55:23;2;2;
69350;PMS7003;57106;51.446;-2.606;2023-07-31T06:57:49;2;2;
69350;PMS7003;57106;51.446;-2.606;2023-07-31T07:00:14;3;2;
69350;PMS7003;57106;51.446;-2.606;2023-07-31T07:02:39;1;0;
69350;PMS7003;57106;51.446;-2.606;2023-07-31T07:05:05;4;3;
69350;PMS7003;57106;51.446;-2.606;2023-07-31T07:07:30;1;1;
69350;PMS7003;57106;51.446;-2.606;2023-07-31T07:12:20;2;1;
69350;PMS7003;57106;51.446;-2.606;2023-07-31T07:14:46;2;2;
69350;PMS7003;57106;51.446;-2.606;2023-07-31T07:17:14;0;0;
69350;PMS7003;57106;51.446;-2.606;2023-07-31T07:19:39;1;1;
69350;PMS7003;57106;51.446;-2.606;2023-07-31T07:22:03;4;1;
69350;PMS7003;57106;51.446;-2.606;2023-07-31T07:24:27;4;1;
69350;PMS7003;57106;51.446;-2.606;2023-07-31T07:26:52;0;0;
69350;PMS7003;57106;51.446;-2.606;2023-07-31T07:29:23;1;1;
69350;PMS7003;57106;51.446;-2.606;2023-07-31T07:31:43;2;1;
69350;PMS7003;57106;51.446;-2.606;2023-07-31T07:34:08;2;1;
69350;PMS7003;57106;51.446;-2.606;2023-07-31T07:36:39;1;1;
69350;PMS7003;57106;51.446;-2.606;2023-07-31T07:38:59;0;0;
69350;PMS7003;57106;51.446;-2.606;2023-07-31T07:41:24;1;1;
69350;PMS7003;57106;51.446;-2.606;2023-07-31T07:43:50;0;0;
69350;PMS7003;57106;51.446;-2.606;2023-07-31T07:46:15;0;0;
69350;PMS7003;57106;51.446;-2.606;2023-07-31T07:48:40;0;0;
69350;PMS7003;57106;51.446;-2.606;2023-07-31T07:51:06;2;2;
69350;PMS7003;57106;51.446;-2.606;2023-07-31T07:53:31;2;0;
69350;PMS7003;57106;51.446;-2.606;2023-07-31T07:55:56;1;1;
69350;PMS7003;57106;51.446;-2.606;2023-07-31T07:58:22;2;2;
69350;PMS7003;57106;51.446;-2.606;2023-07-31T08:00:48;0;0;
69350;PMS7003;57106;51.446;-2.606;2023-07-31T08:03:12;3;0;
69350;PMS7003;57106;51.446;-2.606;2023-07-31T08:05:38;1;1;
69350;PMS7003;57106;51.446;-2.606;2023-07-31T08:08:03;0;0;
69350;PMS7003;57106;51.446;-2.606;2023-07-31T08:10:28;4;2;
69350;PMS7003;57106;51.446;-2.606;2023-07-31T08:12:54;1;1;
69350;PMS7003;57106;51.446;-2.606;2023-07-31T08:15:19;1;1;
69350;PMS7003;57106;51.446;-2.606;2023-07-31T08:17:44;2;1;
69350;PMS7003;57106;51.446;-2.606;2023-07-31T08:20:10;1;1;
69350;PMS7003;57106;51.446;-2.606;2023-07-31T08:22:35;2;1;
69350;PMS7003;57106;51.446;-2.606;2023-07-31T08:25:00;1;1;
69350;PMS7003;57106;51.446;-2.606;2023-07-31T08:27:25;0;0;
69350;PMS7003;57106;51.446;-2.606;2023-07-31T08:29:51;2;1;
69350;PMS7003;57106;51.446;-2.606;2023-07-31T08:32:16;1;1;
69350;PMS7003;57106;51.446;-2.606;2023-07-31T08:34:42;3;2;
69350;PMS7003;57106;51.446;-2.606;2023-07-31T08:37:07;1;0;
69350;PMS7003;57106;51.446;-2.606;2023-07-31T08:39:32;1;1;
69350;PMS7003;57106;51.446;-2.606;2023-07-31T08:41:58;4;2;
69350;PMS7003;57106;51.446;-2.606;2023-07-31T08:44:23;2;2;
69350;PMS7003;57106;51.446;-2.606;2023-07-31T08:46:49;3;2;
69350;PMS7003;57106;51.446;-2.606;2023-07-31T08:49:14;3;2;
69350;PMS7003;57106;51.446;-2.606;2023-07-31T08:51:39;3;3;
69350;PMS7003;57106;51.446;-2.606;2023-07-31T08:54:04;3;3;
69350;PMS7003;57106;51.446;-2.606;2023-07-31T09:13:28;7;7;
69350;PMS7003;57106;51.446;-2.606;2023-07-31T09:25:34;5;4;
69350;PMS7003;57106;51.446;-2.606;2023-07-31T09:28:00;6;6;
69350;PMS7003;57106;51.446;-2.606;2023-07-31T09:30:25;7;5;
69350;PMS7003;57106;51.446;-2.606;2023-07-31T09:32:50;6;6;
69350;PMS7003;57106;51.446;-2.606;2023-07-31T09:35:18;4;4;
69350;PMS7003;57106;51.446;-2.606;2023-07-31T09:37:41;5;5;
69350;PMS7003;57106;51.446;-2.606;2023-07-31T09:40:07;6;6;
69350;PMS7003;57106;51.446;-2.606;2023-07-31T09:42:32;9;5;
69350;PMS7003;57106;51.446;-2.606;2023-07-31T09:47:22;5;4;
69350;PMS7003;57106;51.446;-2.606;2023-07-31T09:49:53;8;6;
69350;PMS7003;57106;51.446;-2.606;2023-07-31T09:52:13;6;5;
69350;PMS7003;57106;51.446;-2.606;2023-07-31T09:54:38;5;4;
69350;PMS7003;57106;51.446;-2.606;2023-07-31T09:57:04;6;6;
69350;PMS7003;57106;51.446;-2.606;2023-07-31T09:59:29;4;4;
69350;PMS7003;57106;51.446;-2.606;2023-07-31T10:01:54;5;4;
69350;PMS7003;57106;51.446;-2.606;2023-07-31T10:04:20;5;5;
69350;PMS7003;57106;51.446;-2.606;2023-07-31T10:06:45;8;6;
69350;PMS7003;57106;51.446;-2.606;2023-07-31T10:09:11;6;5;
69350;PMS7003;57106;51.446;-2.606;2023-07-31T10:11:37;8;7;
69350;PMS7003;57106;51.446;-2.606;2023-07-31T10:14:01;5;5;
69350;PMS7003;57106;51.446;-2.606;2023-07-31T10:16:26;7;5;
69350;PMS7003;57106;51.446;-2.606;2023-07-31T10:18:52;7;6;
69350;PMS7003;57106;51.446;-2.606;2023-07-31T10:21:17;7;6;
69350;PMS7003;57106;51.446;-2.606;2023-07-31T10:23:43;10;9;
69350;PMS7003;57106;51.446;-2.606;2023-07-31T10:26:08;6;6;
69350;PMS7003;57106;51.446;-2.606;2023-07-31T10:28:33;6;6;
69350;PMS7003;57106;51.446;-2.606;2023-07-31T10:30:58;9;5;
69350;PMS7003;57106;51.446;-2.606;2023-07-31T10:33:24;5;4;
69350;PMS7003;57106;51.446;-2.606;2023-07-31T10:35:50;6;5;
69350;PMS7003;57106;51.446;-2.606;2023-07-31T10:38:15;7;4;
69350;PMS7003;57106;51.446;-2.606;2023-07-31T10:40:40;5;3;
69350;PMS7003;57106;51.446;-2.606;2023-07-31T10:43:05;4;4;
69350;PMS7003;57106;51.446;-2.606;2023-07-31T10:45:37;5;5;
69350;PMS7003;57106;51.446;-2.606;2023-07-31T10:48:00;5;5;
69350;PMS7003;57106;51.446;-2.606;2023-07-31T10:50:22;7;4;
69350;PMS7003;57106;51.446;-2.606;2023-07-31T10:52:47;4;4;
69350;PMS7003;57106;51.446;-2.606;2023-07-31T10:55:15;5;4;
69350;PMS7003;57106;51.446;-2.606;2023-07-31T10:57:38;7;5;
69350;PMS7003;57106;51.446;-2.606;2023-07-31T11:02:28;8;5;
